We konden geen weer-waarchuwingen ophalen. Ga rechtstreeks naar de Meteoalarm site : www.meteoalarm.eu en controleer daar .


Onweer radar Meer informatie blitzortung!


Regen radar Meer informatie rain snow radar



METAR rapporten vliegvelden

   
EHRD - Rotterdam
Gewijzigd: 29-06-2022 04:55
Helder  
Helder  
   Wind: OZO 6 km/h
Wind: OZO 6 km/h
Temperatuur: 16°C
Dauwpunt: 12°C
Vochtigheid: 77%
Barometer: 1014 hPa
Bewolking: Clear
Zicht: meer dan 10 km
Bewolking: Helder ft
EHRD 290255Z AUTO 11006KT 9999 NCD 16/12 Q1014 NOSIG
EBAW - Antwerpen
Gewijzigd: 29-06-2022 05:20
  
  
   Wind: Oosten 1 km/h
Wind: Oosten 1 km/h
Temperatuur: 14°C
Dauwpunt: 11°C
Vochtigheid: 82%
Barometer: 1014 hPa
Zicht: meer dan 10 km
Bewolking: Bewolking ft
EBAW 290320Z AUTO 08001KT 9999 // VV/// 14/11 Q1014
EHAM - Amsterdam
Gewijzigd: 29-06-2022 05:25
Helder  
Helder  
   Wind: OZO 9 km/h
Wind: OZO 9 km/h
Temperatuur: 16°C
Dauwpunt: 11°C
Vochtigheid: 72%
Barometer: 1015 hPa
Zicht: meer dan 10 km
Bewolking: Helder ft
EHAM 290325Z 11009KT CAVOK 16/11 Q1015 NOSIG
EHEH - Eindhoven
Gewijzigd: 29-06-2022 05:25
Grotendeels bewolkt  
Grotendeels bewolkt  
   Wind: OZO 3 km/h
Wind: OZO 3 km/h
Temperatuur: 16°C
Dauwpunt: 11°C
Vochtigheid: 72%
Barometer: 1015 hPa
Bewolking: Mostly Cloudy
Zicht: meer dan 10 km
Bewolking: Grotendeels bewolkt 7000 ft
EHEH 290325Z AUTO 12003KT 010V120 9999 BKN070 16/11 Q1015 BLU
  

Script ontwikkeld door  Saratoga-weather.org Aangepast voor de template door  Weerstation Leuven

U vindt ons ook hier:

Het Weer Aktueel

Apparatuur in gebruik:

Weerstation
Davis VP2

Weerprogramma
Cumulus

Weercomputer
Pipo X9 with Windows 10

Davis VP2

Cumulus

Pipo X9 with Windows 10